createdAt,value
2019-01-14T00:00:15.288Z,0.80
2019-01-14T00:03:19.001Z,0.90
2019-01-14T00:06:22.552Z,1.07
2019-01-14T00:09:31.079Z,0.83
2019-01-14T00:12:29.481Z,1.30
2019-01-14T00:15:32.913Z,1.07
2019-01-14T00:18:36.432Z,0.90
2019-01-14T00:21:39.903Z,0.70
2019-01-14T00:24:43.354Z,0.90
2019-01-14T00:27:46.875Z,1.30
2019-01-14T00:30:50.331Z,0.80
2019-01-14T00:33:53.903Z,1.00
2019-01-14T00:36:57.367Z,1.13
2019-01-14T00:40:00.839Z,1.23
2019-01-14T00:43:04.369Z,1.47
2019-01-14T00:46:07.845Z,1.07
2019-01-14T00:49:11.347Z,0.90
2019-01-14T00:52:14.877Z,1.20
2019-01-14T00:55:18.312Z,1.20
2019-01-14T00:58:21.762Z,1.20
2019-01-14T01:01:25.303Z,1.40
2019-01-14T01:04:28.747Z,1.63
2019-01-14T01:07:32.303Z,1.47
2019-01-14T01:10:35.757Z,1.33
2019-01-14T01:13:39.314Z,1.10
2019-01-14T01:16:42.855Z,1.43
2019-01-14T01:19:46.223Z,0.90
2019-01-14T01:22:50.690Z,1.40
2019-01-14T01:25:54.091Z,1.23
2019-01-14T01:28:57.498Z,1.20
2019-01-14T01:32:00.940Z,1.30
2019-01-14T01:35:05.106Z,1.10
2019-01-14T01:38:08.480Z,1.17
2019-01-14T01:41:11.928Z,1.30
2019-01-14T01:44:15.398Z,1.40
2019-01-14T01:47:18.770Z,0.90
2019-01-14T01:50:22.216Z,1.30
2019-01-14T01:53:25.588Z,1.20
2019-01-14T01:56:28.988Z,1.17
2019-01-14T01:59:32.402Z,0.97
2019-01-14T02:02:35.787Z,1.40
2019-01-14T02:05:39.237Z,1.20
2019-01-14T02:08:42.719Z,1.50
2019-01-14T02:11:46.140Z,1.03
2019-01-14T02:14:49.636Z,1.30
2019-01-14T02:17:53.154Z,1.07
2019-01-14T02:20:56.689Z,1.40
2019-01-14T02:24:00.143Z,1.10
2019-01-14T02:27:03.619Z,1.30
2019-01-14T02:30:08.927Z,1.10
2019-01-14T02:33:12.310Z,1.13
2019-01-14T02:36:15.801Z,1.13
2019-01-14T02:39:19.238Z,1.37
2019-01-14T02:42:22.709Z,1.40
2019-01-14T02:45:26.217Z,1.20
2019-01-14T02:48:29.675Z,1.40
2019-01-14T02:51:33.151Z,1.00
2019-01-14T02:54:36.568Z,1.80
2019-01-14T02:57:40.044Z,1.30
2019-01-14T03:00:43.470Z,1.10
2019-01-14T03:03:46.879Z,1.90
2019-01-14T03:06:57.582Z,1.03
2019-01-14T03:09:53.985Z,1.20
2019-01-14T03:12:57.525Z,4.67
2019-01-14T03:16:00.960Z,3.70
2019-01-14T03:19:04.526Z,4.50
2019-01-14T03:22:08.056Z,1.97
2019-01-14T03:25:12.001Z,2.03
2019-01-14T03:28:15.524Z,1.37
2019-01-14T03:31:19.050Z,1.30
2019-01-14T03:34:22.580Z,1.23
2019-01-14T03:37:26.095Z,1.10
2019-01-14T03:40:29.616Z,1.50
2019-01-14T03:43:33.229Z,1.20
2019-01-14T03:46:36.736Z,1.10
2019-01-14T03:49:40.236Z,1.47
2019-01-14T03:52:43.844Z,1.53
2019-01-14T03:55:47.421Z,1.27
2019-01-14T03:58:50.991Z,1.30
2019-01-14T04:01:54.410Z,1.80
2019-01-14T04:04:57.978Z,1.20
2019-01-14T04:08:01.483Z,1.37
2019-01-14T04:11:05.001Z,1.10
2019-01-14T04:14:08.425Z,1.20
2019-01-14T04:17:11.965Z,1.30
2019-01-14T04:20:16.593Z,1.20
2019-01-14T04:23:20.049Z,1.20
2019-01-14T04:26:23.600Z,1.50
2019-01-14T04:29:27.054Z,1.60
2019-01-14T04:32:30.601Z,1.40
2019-01-14T04:35:34.050Z,1.20
2019-01-14T04:38:37.439Z,1.83
2019-01-14T04:41:40.881Z,1.57
2019-01-14T04:44:45.419Z,1.50
2019-01-14T04:47:48.927Z,1.10
2019-01-14T04:50:52.390Z,1.40
2019-01-14T04:53:55.935Z,1.80
2019-01-14T04:56:59.412Z,1.60
2019-01-14T05:00:02.948Z,1.20
2019-01-14T05:03:06.432Z,1.60
2019-01-14T05:06:09.913Z,1.50
2019-01-14T05:09:13.508Z,1.60
2019-01-14T05:12:16.906Z,1.93
2019-01-14T05:15:20.377Z,2.30
2019-01-14T05:18:23.845Z,2.07
2019-01-14T05:21:27.256Z,1.60
2019-01-14T05:24:30.745Z,2.00
2019-01-14T05:27:34.243Z,2.00
2019-01-14T05:30:37.725Z,2.07
2019-01-14T05:33:41.237Z,1.83
2019-01-14T05:36:44.741Z,1.70
2019-01-14T05:39:48.207Z,1.67
2019-01-14T05:42:51.654Z,1.67
2019-01-14T05:45:55.159Z,1.40
2019-01-14T05:48:58.698Z,1.70
2019-01-14T05:52:02.182Z,1.80
2019-01-14T05:55:06.227Z,1.87
2019-01-14T05:58:09.781Z,2.43
2019-01-14T06:01:13.271Z,1.27
2019-01-14T06:04:16.736Z,1.50
2019-01-14T06:07:20.159Z,1.83
2019-01-14T06:10:23.524Z,1.57
2019-01-14T06:13:27.050Z,1.80
2019-01-14T06:16:30.492Z,1.80
2019-01-14T06:19:34.062Z,1.63
2019-01-14T06:22:37.554Z,1.67
2019-01-14T06:25:41.050Z,1.73
2019-01-14T06:28:44.580Z,1.70
2019-01-14T06:31:47.972Z,1.57
2019-01-14T06:34:51.372Z,1.47
2019-01-14T06:37:54.927Z,1.80
2019-01-14T06:40:58.519Z,1.70
2019-01-14T06:44:02.091Z,1.90
2019-01-14T06:47:05.547Z,1.67
2019-01-14T06:50:10.999Z,1.70
2019-01-14T06:53:14.496Z,1.77
2019-01-14T06:56:18.214Z,1.90
2019-01-14T06:59:21.633Z,1.97
2019-01-14T07:02:25.149Z,1.90
2019-01-14T07:05:28.609Z,1.93
2019-01-14T07:08:32.092Z,1.30
2019-01-14T07:11:35.724Z,1.80
2019-01-14T07:14:39.299Z,1.80
2019-01-14T07:17:42.894Z,1.80
2019-01-14T07:20:46.469Z,1.90
2019-01-14T07:23:49.935Z,2.13
2019-01-14T07:26:53.483Z,1.70
2019-01-14T07:29:56.948Z,1.83
2019-01-14T07:33:00.463Z,1.87
2019-01-14T07:36:04.127Z,1.73
2019-01-14T07:39:08.785Z,1.83
2019-01-14T07:42:12.325Z,1.83
2019-01-14T07:45:16.446Z,1.77
2019-01-14T07:48:19.855Z,1.90
2019-01-14T07:51:23.283Z,1.80
2019-01-14T07:54:26.680Z,2.17
2019-01-14T07:57:30.164Z,2.07
2019-01-14T08:00:33.634Z,2.03
2019-01-14T08:03:37.158Z,2.37
2019-01-14T08:06:40.619Z,2.33
2019-01-14T08:09:44.093Z,1.87
2019-01-14T08:12:47.511Z,1.93
2019-01-14T08:15:51.178Z,2.13
2019-01-14T08:18:54.599Z,2.23
2019-01-14T08:21:58.095Z,2.40
2019-01-14T08:25:02.513Z,2.37
2019-01-14T08:28:05.980Z,2.60
2019-01-14T08:31:09.457Z,2.07
2019-01-14T08:34:12.985Z,2.30
2019-01-14T08:37:16.463Z,2.33
2019-01-14T08:40:20.058Z,2.37
2019-01-14T08:43:23.623Z,2.20
2019-01-14T08:46:27.200Z,2.60
2019-01-14T08:49:30.685Z,2.40
2019-01-14T08:52:34.173Z,2.17
2019-01-14T08:55:37.886Z,2.50
2019-01-14T08:58:42.338Z,2.43
2019-01-14T09:01:45.825Z,2.33
2019-01-14T09:04:49.984Z,2.83
2019-01-14T09:07:53.561Z,2.47
2019-01-14T09:10:57.049Z,2.40
2019-01-14T09:14:00.607Z,2.60
2019-01-14T09:17:05.258Z,2.10
2019-01-14T09:20:12.100Z,2.27
2019-01-14T09:23:15.562Z,2.40
2019-01-14T09:26:20.105Z,2.10
2019-01-14T09:29:23.670Z,2.63
2019-01-14T09:35:58.758Z,2.17
2019-01-14T09:39:08.838Z,2.20
2019-01-14T09:42:12.504Z,2.00
2019-01-14T09:45:16.020Z,1.53
2019-01-14T09:48:20.649Z,1.77
2019-01-14T09:51:25.225Z,1.90
2019-01-14T09:54:28.834Z,1.27
2019-01-14T09:57:32.362Z,1.83
2019-01-14T10:00:36.962Z,1.83
2019-01-14T10:03:40.548Z,2.50
2019-01-14T10:06:44.101Z,14.40
2019-01-14T10:09:47.705Z,8.00
2019-01-14T10:12:51.147Z,3.93
2019-01-14T10:15:54.668Z,6.50
2019-01-14T10:18:58.329Z,2.03
2019-01-14T10:22:01.854Z,2.00
2019-01-14T10:25:06.205Z,1.80
2019-01-14T10:28:09.724Z,2.70
2019-01-14T10:31:13.169Z,2.03
2019-01-14T10:34:16.725Z,1.93
2019-01-14T10:37:22.892Z,1.90
2019-01-14T10:40:23.899Z,2.00
2019-01-14T10:43:27.443Z,1.60
2019-01-14T10:46:30.950Z,1.40
2019-01-14T10:49:34.528Z,1.70
2019-01-14T10:52:38.090Z,1.53
2019-01-14T10:55:41.590Z,1.80
2019-01-14T10:58:45.080Z,1.97
2019-01-14T11:01:48.570Z,2.03
2019-01-14T11:04:52.147Z,1.50
2019-01-14T11:07:55.680Z,1.90
2019-01-14T11:10:59.202Z,1.80
2019-01-14T11:14:02.679Z,1.70
2019-01-14T11:17:06.200Z,1.80
2019-01-14T11:20:13.228Z,1.60
2019-01-14T11:23:16.794Z,1.70
2019-01-14T11:26:20.421Z,1.53
2019-01-14T11:29:23.880Z,1.50
2019-01-14T11:32:27.373Z,1.13
2019-01-14T11:35:30.823Z,1.40
2019-01-14T11:38:39.267Z,1.53
2019-01-14T11:41:42.856Z,1.40
2019-01-14T11:44:46.249Z,1.50
2019-01-14T11:47:49.652Z,1.57
2019-01-14T11:50:53.080Z,1.70
2019-01-14T11:53:56.548Z,1.53
2019-01-14T11:56:59.927Z,0.60
2019-01-14T12:00:03.522Z,0.73
2019-01-14T12:03:08.525Z,0.77
2019-01-14T12:06:10.481Z,0.63
2019-01-14T12:09:14.026Z,0.60
2019-01-14T12:12:17.484Z,0.70
2019-01-14T12:15:23.017Z,1.97
2019-01-14T12:18:26.426Z,0.90
2019-01-14T12:21:29.920Z,0.80
2019-01-14T12:24:33.322Z,0.77
2019-01-14T12:27:36.821Z,0.87
2019-01-14T12:30:41.732Z,0.90
2019-01-14T12:33:44.044Z,0.90
2019-01-14T12:36:47.540Z,0.90
2019-01-14T12:39:50.942Z,1.00
2019-01-14T12:42:54.671Z,1.10
2019-01-14T12:45:58.145Z,0.63
2019-01-14T12:49:01.522Z,1.30
2019-01-14T12:52:05.106Z,1.10
2019-01-14T12:55:09.696Z,2.30
2019-01-14T12:58:13.164Z,1.63
2019-01-14T13:01:16.606Z,0.90
2019-01-14T13:04:20.057Z,1.03
2019-01-14T13:07:23.481Z,1.10
2019-01-14T13:10:26.958Z,1.00
2019-01-14T13:13:30.405Z,0.90
2019-01-14T13:16:33.775Z,0.80
2019-01-14T13:19:37.228Z,0.80
2019-01-14T13:22:40.760Z,1.30
2019-01-14T13:25:44.170Z,0.80
2019-01-14T13:28:47.664Z,0.63
2019-01-14T13:31:51.110Z,0.60
2019-01-14T13:34:54.607Z,1.00
2019-01-14T13:37:58.264Z,0.60
2019-01-14T13:41:01.776Z,0.70
2019-01-14T13:44:05.263Z,0.90
2019-01-14T13:47:08.710Z,1.00
2019-01-14T13:50:13.730Z,1.00
2019-01-14T13:53:17.186Z,1.10
2019-01-14T13:56:20.531Z,1.00
2019-01-14T13:59:23.946Z,0.80
2019-01-14T14:02:27.324Z,1.20
2019-01-14T14:05:30.738Z,0.90
2019-01-14T14:08:34.124Z,1.17
2019-01-14T14:11:37.541Z,1.20
2019-01-14T14:14:40.923Z,1.17
2019-01-14T14:17:44.369Z,1.60
2019-01-14T14:20:47.797Z,1.20
2019-01-14T14:24:02.260Z,1.50
2019-01-14T14:27:05.813Z,1.70
2019-01-14T14:30:15.232Z,1.60
2019-01-14T14:33:18.746Z,1.43
2019-01-14T14:36:22.262Z,1.40
2019-01-14T14:39:25.743Z,2.00
2019-01-14T14:42:29.243Z,2.10
2019-01-14T14:45:32.825Z,1.57
2019-01-14T14:48:36.369Z,1.87
2019-01-14T14:51:39.890Z,1.77
2019-01-14T14:54:43.400Z,1.97
2019-01-14T14:57:46.947Z,1.97
2019-01-14T15:00:50.495Z,1.53
2019-01-14T15:03:53.967Z,1.57
2019-01-14T15:06:57.511Z,1.70
2019-01-14T15:10:00.976Z,1.77
2019-01-14T15:13:04.719Z,1.90
2019-01-14T15:16:09.426Z,1.80
2019-01-14T15:19:12.942Z,1.87
2019-01-14T15:22:16.394Z,1.90
2019-01-14T15:25:20.472Z,1.93
2019-01-14T15:28:24.074Z,1.90
2019-01-14T15:31:27.753Z,2.23
2019-01-14T15:34:33.163Z,1.57
2019-01-14T15:37:36.412Z,2.27
2019-01-14T15:40:39.902Z,1.90
2019-01-14T15:43:46.249Z,1.53
2019-01-14T15:46:49.771Z,1.23
2019-01-14T15:49:53.296Z,1.40
2019-01-14T15:52:56.819Z,1.60
2019-01-14T15:56:00.294Z,1.30
2019-01-14T15:59:03.804Z,1.17
2019-01-14T16:02:07.424Z,1.50
2019-01-14T16:05:11.092Z,1.30
2019-01-14T16:08:14.670Z,1.37
2019-01-14T16:11:18.168Z,1.40
2019-01-14T16:14:21.669Z,1.50
2019-01-14T16:17:25.221Z,2.03
2019-01-14T16:20:28.746Z,1.40
2019-01-14T16:23:32.270Z,1.57
2019-01-14T16:26:35.724Z,1.70
2019-01-14T16:29:39.306Z,2.63
2019-01-14T16:32:42.960Z,1.50
2019-01-14T16:35:46.400Z,1.53
2019-01-14T16:38:49.858Z,1.80
2019-01-14T16:41:53.395Z,1.50
2019-01-14T16:44:56.944Z,1.60
2019-01-14T16:48:00.549Z,1.27
2019-01-14T16:51:04.143Z,1.67
2019-01-14T16:54:07.651Z,1.47
2019-01-14T16:57:11.288Z,1.50
2019-01-14T17:00:17.056Z,1.40
2019-01-14T17:03:22.564Z,1.40
2019-01-14T17:06:26.151Z,1.43
2019-01-14T17:09:29.731Z,1.83
2019-01-14T17:12:33.229Z,2.00
2019-01-14T17:15:36.700Z,1.50
2019-01-14T17:18:40.260Z,1.93
2019-01-14T17:21:43.713Z,1.50
2019-01-14T17:24:47.237Z,1.50
2019-01-14T17:27:50.791Z,1.40
2019-01-14T17:30:54.354Z,1.47
2019-01-14T17:33:57.868Z,1.87
2019-01-14T17:37:02.031Z,2.30
2019-01-14T17:40:08.165Z,1.70
2019-01-14T17:43:11.629Z,2.13
2019-01-14T17:46:15.984Z,2.60
2019-01-14T17:49:19.537Z,3.43
2019-01-14T17:52:23.320Z,1.50
2019-01-14T17:55:26.918Z,3.00
2019-01-14T17:58:30.639Z,1.47
2019-01-14T18:01:34.139Z,1.40
2019-01-14T18:04:37.930Z,1.43
2019-01-14T18:07:42.171Z,1.37
2019-01-14T18:14:16.285Z,1.60
2019-01-14T18:17:19.878Z,1.40
2019-01-14T18:20:23.529Z,1.57
2019-01-14T18:23:27.138Z,1.40
2019-01-14T18:26:30.679Z,1.03
2019-01-14T18:29:34.220Z,1.40
2019-01-14T18:32:37.843Z,1.60
2019-01-14T18:35:41.455Z,3.80
2019-01-14T18:38:45.013Z,2.17
2019-01-14T18:41:48.510Z,1.80
2019-01-14T18:44:51.960Z,1.70
2019-01-14T18:47:55.558Z,1.60
2019-01-14T18:50:59.031Z,1.50
2019-01-14T18:54:02.467Z,2.00
2019-01-14T18:57:06.083Z,1.40
2019-01-14T19:00:12.649Z,1.30
2019-01-14T19:03:16.103Z,1.40
2019-01-14T19:06:19.492Z,1.53
2019-01-14T19:09:22.925Z,1.43
2019-01-14T19:12:26.296Z,1.40
2019-01-14T19:15:29.861Z,1.17
2019-01-14T19:18:33.338Z,2.20
2019-01-14T19:21:38.038Z,1.60
2019-01-14T19:24:41.601Z,1.50
2019-01-14T19:31:16.380Z,1.97
2019-01-14T19:34:22.135Z,1.70
2019-01-14T19:37:27.373Z,1.60
2019-01-14T19:40:30.984Z,1.87
2019-01-14T19:43:34.658Z,1.60
2019-01-14T19:46:38.057Z,1.90
2019-01-14T19:49:41.605Z,1.57
2019-01-14T19:52:45.375Z,1.63
2019-01-14T19:55:50.140Z,4.57
2019-01-14T19:58:56.282Z,8.43
2019-01-14T20:01:59.812Z,7.40
2019-01-14T20:05:04.800Z,4.07
2019-01-14T20:08:08.306Z,2.40
2019-01-14T20:11:11.816Z,2.33
2019-01-14T20:14:15.266Z,2.20
2019-01-14T20:17:18.764Z,2.40
2019-01-14T20:20:22.328Z,1.83
2019-01-14T20:23:25.842Z,2.10
2019-01-14T20:26:30.314Z,2.00
2019-01-14T20:29:34.355Z,2.10
2019-01-14T20:32:37.869Z,3.03
2019-01-14T20:35:41.628Z,2.90
2019-01-14T20:38:48.720Z,2.50
2019-01-14T20:41:54.028Z,2.43
2019-01-14T20:44:57.513Z,2.47
2019-01-14T20:48:00.962Z,2.30
2019-01-14T20:51:05.627Z,2.37
2019-01-14T20:54:07.899Z,2.30
2019-01-14T20:57:11.391Z,1.90
2019-01-14T21:00:16.979Z,1.93
2019-01-14T21:03:20.447Z,1.70
2019-01-14T21:06:24.000Z,2.20
2019-01-14T21:09:27.431Z,2.10
2019-01-14T21:12:30.909Z,2.50
2019-01-14T21:15:34.489Z,2.43
2019-01-14T21:18:37.934Z,3.27
2019-01-14T21:21:41.434Z,3.50
2019-01-14T21:24:44.844Z,3.73
2019-01-14T21:27:48.333Z,3.83
2019-01-14T21:30:51.748Z,3.80
2019-01-14T21:33:55.199Z,4.10
2019-01-14T21:36:58.650Z,3.97
2019-01-14T21:40:02.314Z,4.07
2019-01-14T21:46:06.360Z,3.90
2019-01-14T21:49:09.876Z,4.57
2019-01-14T21:52:13.310Z,5.23
2019-01-14T21:55:20.136Z,4.70
2019-01-14T21:58:23.600Z,4.63
2019-01-14T22:01:27.181Z,3.87
2019-01-14T22:04:30.673Z,3.70
2019-01-14T22:07:34.187Z,3.80
2019-01-14T22:10:38.603Z,3.40
2019-01-14T22:13:42.178Z,3.90
2019-01-14T22:16:45.796Z,3.43
2019-01-14T22:19:49.426Z,3.37
2019-01-14T22:22:52.943Z,3.40
2019-01-14T22:25:56.578Z,3.03
2019-01-14T22:32:36.575Z,2.50
2019-01-14T22:35:40.164Z,2.67
2019-01-14T22:38:43.664Z,3.00
2019-01-14T22:41:48.307Z,2.70
2019-01-14T22:44:51.812Z,2.37
2019-01-14T22:47:55.312Z,2.63
2019-01-14T22:50:59.805Z,2.90
2019-01-14T22:54:03.331Z,3.33
2019-01-14T22:57:06.923Z,3.40
2019-01-14T23:01:19.782Z,3.20
2019-01-14T23:04:23.280Z,2.97
2019-01-14T23:07:26.886Z,3.17
2019-01-14T23:10:30.392Z,2.83
2019-01-14T23:13:33.972Z,2.87
2019-01-14T23:16:37.588Z,2.80
2019-01-14T23:19:41.111Z,3.43
2019-01-14T23:22:44.696Z,2.87
2019-01-14T23:25:48.208Z,3.23
2019-01-14T23:28:51.758Z,3.20
2019-01-14T23:31:55.424Z,2.87
2019-01-14T23:34:59.016Z,2.90
2019-01-14T23:38:02.643Z,3.17
2019-01-14T23:41:06.221Z,2.80
2019-01-14T23:44:10.805Z,2.80
2019-01-14T23:47:14.378Z,2.70
2019-01-14T23:50:17.985Z,3.00
2019-01-14T23:53:21.582Z,2.90
2019-01-14T23:56:25.365Z,2.77
2019-01-14T23:59:29.062Z,3.13
